Valley Falls, KS

12:59 PM CST on December 10, 2016 (GMT -0600)
Lakeridge | | Change Station

Elev 1023 ft 39.16 °N, 95.48 °W | Updated 5 seconds ago

Overcast
Overcast
35.1 °F
Feels Like 33 °F
N
3.1
Wind Variable Wind from SE
Gusts 5.4 mph

Today
High -- | Low -- °F
--% Chance of Precip.
Yesterday
High -- | Low -- °F
Precip. -- in
Pressure 30.27 in
Visibility 10.0 miles
Clouds Overcast 4600 ft
Windchill 33 °F
Dew Point 19 °F
Humidity 52%
Rainfall 0.00 in
Snow Depth Not available.
7:31 AM 4:58 PM
Waxing Gibbous, 85% visible
METAR KTOP 101853Z 14007KT 10SM OVC046 02/M07 A3025 RMK AO2 SLP251 T00171067
Pressure 30.27 in
Visibility 10.0 miles
Clouds Overcast 4600 ft
Windchill 33 °F
Dew Point 19 °F
Humidity 52%
Rainfall 0.00 in
Snow Depth Not available.
7:31 AM 4:58 PM
Waxing Gibbous, 85% visible
METAR KTOP 101853Z 14007KT 10SM OVC046 02/M07 A3025 RMK AO2 SLP251 T00171067

10-Day Weather Forecast

Almanac

Astronomy

Dec. 10, 2016 Rise Set
Actual Time
Civil Twilight
Nautical Twilight
Astronomical Twilight
Moon
Length of Visible Light
Length of Day
Tomorrow will be .
, % of the Moon is Illuminated

Today's Extremes

State Highs State Lows

Community

WunderPhotos

Upload Photos

1,956,620 photos uploaded!

WunderBlog® & News

Nearby

Air Quality

  Air Quality AQ Index Pollutant
Not available.

Snow Depth

Station Depth Elevation

Earthquake Activity

City Distance Mag. Time & Date
Minimum magnitude displayed is 2.5.

Coastal Water Temperatures

Place Temperature

Stations

Nearby Weather Stations

Station Location Temp. Windchill Dew Point Humidity Wind Precip. Elev Updated Type
                   

Watches & Warnings

There are currently no watches in effect.